WZZ5479 EPGD-EPKK
Flight info
| Callsign | WZZ5479 |
|---|---|
| Flight time | 0h 55m |
| Altitude | 35000 |
| Route | IRLUN3B IRLUN DCT PENEX N133 POLON DCT KUKAM KUKAM4G |
| Aircraft | A320/M-SDE3FGHIRWY/LB1 |
Departure
| Time | 2026-05-06 19:07 |
|---|---|
| Airport | Gdańsk Lech Wałęsa Airport (EPGD) |
Arrival
| Time | 2026-05-06 20:02 |
|---|---|
| Airport | Kraków John Paul II International Airport (EPKK) |
| Time | Latitude | Longitude | Altitude | Speed | Heading |
|---|---|---|---|---|---|
| 2026-05-06 18:22 | 54.38190 | 18.46315 | 467 ft | 0 kts | 22° |
| 2026-05-06 19:02 | 54.38185 | 18.46311 | 474 ft | 2 kts | 20° |
| 2026-05-06 19:03 | 54.38167 | 18.46303 | 470 ft | 3 kts | 1° |
| 2026-05-06 19:03 | 54.38148 | 18.46306 | 472 ft | 3 kts | 331° |
| 2026-05-06 19:03 | 54.38136 | 18.46323 | 472 ft | 2 kts | 295° |
| 2026-05-06 19:03 | 54.38135 | 18.46328 | 472 ft | 0 kts | 293° |
| 2026-05-06 19:04 | 54.37136 | 18.49128 | 477 ft | 0 kts | 292° |
| 2026-05-06 19:05 | 54.38094 | 18.45261 | 475 ft | 0 kts | 113° |
| 2026-05-06 19:05 | 54.38090 | 18.45277 | 478 ft | 12 kts | 113° |
| 2026-05-06 19:06 | 54.37962 | 18.45798 | 475 ft | 79 kts | 113° |
| 2026-05-06 19:06 | 54.37678 | 18.46964 | 473 ft | 129 kts | 114° |
| 2026-05-06 19:06 | 54.37263 | 18.48575 | 597 ft | 160 kts | 104° |
| 2026-05-06 19:06 | 54.36777 | 18.50393 | 1024 ft | 177 kts | 109° |
| 2026-05-06 19:07 | 54.36258 | 18.52554 | 1137 ft | 218 kts | 105° |
| 2026-05-06 19:07 | 54.35696 | 18.54984 | 2153 ft | 216 kts | 110° |
| 2026-05-06 19:07 | 54.35176 | 18.57432 | 2871 ft | 228 kts | 104° |
| 2026-05-06 19:07 | 54.34928 | 18.60318 | 3078 ft | 259 kts | 91° |
| 2026-05-06 19:08 | 54.34641 | 18.63242 | 4264 ft | 245 kts | 113° |
| 2026-05-06 19:08 | 54.33725 | 18.65602 | 5113 ft | 237 kts | 148° |
| 2026-05-06 19:08 | 54.32227 | 18.66521 | 5934 ft | 228 kts | 181° |
| 2026-05-06 19:08 | 54.30618 | 18.66140 | 6396 ft | 244 kts | 204° |
| 2026-05-06 19:09 | 54.29026 | 18.64958 | 7031 ft | 254 kts | 206° |
| 2026-05-06 19:09 | 54.27396 | 18.63746 | 7866 ft | 257 kts | 206° |
| 2026-05-06 19:09 | 54.25745 | 18.62549 | 8733 ft | 259 kts | 204° |
| 2026-05-06 19:09 | 54.23961 | 18.61905 | 9585 ft | 268 kts | 188° |
| 2026-05-06 19:10 | 54.22071 | 18.61877 | 10281 ft | 277 kts | 186° |
| 2026-05-06 19:10 | 54.20062 | 18.61858 | 10499 ft | 300 kts | 186° |
| 2026-05-06 19:10 | 54.17925 | 18.61836 | 10974 ft | 311 kts | 185° |
| 2026-05-06 19:10 | 54.15742 | 18.61818 | 11645 ft | 316 kts | 185° |
| 2026-05-06 19:11 | 54.13529 | 18.61802 | 12346 ft | 320 kts | 185° |
| 2026-05-06 19:11 | 54.11287 | 18.61790 | 13051 ft | 324 kts | 185° |
| 2026-05-06 19:11 | 54.09021 | 18.61775 | 13741 ft | 328 kts | 185° |
| 2026-05-06 19:11 | 54.06728 | 18.61761 | 14358 ft | 331 kts | 185° |
| 2026-05-06 19:12 | 54.04419 | 18.61746 | 14991 ft | 334 kts | 185° |
| 2026-05-06 19:12 | 54.02086 | 18.61730 | 15610 ft | 336 kts | 185° |
| 2026-05-06 19:12 | 53.99737 | 18.61707 | 16218 ft | 339 kts | 185° |
| 2026-05-06 19:12 | 53.97365 | 18.61678 | 16820 ft | 343 kts | 185° |
| 2026-05-06 19:13 | 53.94966 | 18.61652 | 17435 ft | 346 kts | 185° |
| 2026-05-06 19:13 | 53.92550 | 18.61628 | 18052 ft | 349 kts | 184° |
| 2026-05-06 19:13 | 53.90108 | 18.61605 | 18605 ft | 352 kts | 184° |
| 2026-05-06 19:13 | 53.87643 | 18.61584 | 19176 ft | 355 kts | 184° |
| 2026-05-06 19:14 | 53.85164 | 18.61568 | 19766 ft | 358 kts | 184° |
| 2026-05-06 19:14 | 53.82667 | 18.61555 | 20326 ft | 360 kts | 184° |
| 2026-05-06 19:14 | 53.80158 | 18.61539 | 20918 ft | 361 kts | 184° |
| 2026-05-06 19:14 | 53.77635 | 18.61516 | 21485 ft | 363 kts | 185° |
| 2026-05-06 19:15 | 53.75094 | 18.61776 | 22027 ft | 370 kts | 175° |
| 2026-05-06 19:15 | 53.72570 | 18.62867 | 22577 ft | 379 kts | 166° |
| 2026-05-06 19:15 | 53.70068 | 18.64314 | 23128 ft | 381 kts | 166° |
| 2026-05-06 19:15 | 53.67552 | 18.65766 | 23625 ft | 384 kts | 166° |
| 2026-05-06 19:16 | 53.65017 | 18.67222 | 24085 ft | 386 kts | 167° |
| 2026-05-06 19:16 | 53.62468 | 18.68681 | 24532 ft | 388 kts | 167° |
| 2026-05-06 19:16 | 53.59905 | 18.70143 | 24972 ft | 390 kts | 167° |
| 2026-05-06 19:16 | 53.57332 | 18.71614 | 25407 ft | 392 kts | 167° |
| 2026-05-06 19:17 | 53.54747 | 18.73093 | 25838 ft | 393 kts | 167° |
| 2026-05-06 19:17 | 53.52146 | 18.74574 | 26236 ft | 395 kts | 167° |
| 2026-05-06 19:17 | 53.49535 | 18.76052 | 26647 ft | 397 kts | 167° |
| 2026-05-06 19:17 | 53.46906 | 18.77538 | 27049 ft | 399 kts | 167° |
| 2026-05-06 19:18 | 53.44269 | 18.79028 | 27449 ft | 401 kts | 167° |
| 2026-05-06 19:18 | 53.41617 | 18.80525 | 27853 ft | 403 kts | 167° |
| 2026-05-06 19:18 | 53.38957 | 18.82027 | 28249 ft | 405 kts | 167° |
| 2026-05-06 19:18 | 53.36282 | 18.83536 | 28603 ft | 407 kts | 167° |
| 2026-05-06 19:19 | 53.33594 | 18.85054 | 28951 ft | 409 kts | 168° |
| 2026-05-06 19:19 | 53.30885 | 18.86577 | 29315 ft | 411 kts | 168° |
| 2026-05-06 19:19 | 53.28165 | 18.88101 | 29687 ft | 414 kts | 168° |
| 2026-05-06 19:19 | 53.25429 | 18.89633 | 30018 ft | 416 kts | 168° |
| 2026-05-06 19:20 | 53.22683 | 18.91168 | 30307 ft | 418 kts | 168° |
| 2026-05-06 19:20 | 53.19917 | 18.92710 | 30604 ft | 420 kts | 168° |
| 2026-05-06 19:20 | 53.17134 | 18.94262 | 30888 ft | 423 kts | 168° |
| 2026-05-06 19:20 | 53.14340 | 18.95818 | 31176 ft | 425 kts | 168° |
| 2026-05-06 19:21 | 53.11530 | 18.97386 | 31496 ft | 426 kts | 168° |
| 2026-05-06 19:21 | 53.08720 | 18.98957 | 31893 ft | 426 kts | 168° |
| 2026-05-06 19:21 | 53.05915 | 19.00521 | 32290 ft | 425 kts | 168° |
| 2026-05-06 19:21 | 53.03113 | 19.02079 | 32689 ft | 424 kts | 168° |
| 2026-05-06 19:22 | 53.00312 | 19.03633 | 33079 ft | 424 kts | 168° |
| 2026-05-06 19:22 | 52.97513 | 19.05180 | 33476 ft | 424 kts | 168° |
| 2026-05-06 19:22 | 52.94715 | 19.06724 | 33851 ft | 423 kts | 168° |
| 2026-05-06 19:22 | 52.91902 | 19.08273 | 34138 ft | 424 kts | 168° |
| 2026-05-06 19:23 | 52.89120 | 19.09798 | 34423 ft | 425 kts | 168° |
| 2026-05-06 19:23 | 52.86313 | 19.11339 | 34710 ft | 426 kts | 168° |
| 2026-05-06 19:23 | 52.83501 | 19.12887 | 34770 ft | 424 kts | 168° |
| 2026-05-06 19:24 | 52.77948 | 19.15946 | 34799 ft | 419 kts | 168° |
| 2026-05-06 19:24 | 52.72423 | 19.18967 | 34788 ft | 418 kts | 168° |
| 2026-05-06 19:25 | 52.66893 | 19.21968 | 34766 ft | 418 kts | 168° |
| 2026-05-06 19:25 | 52.61363 | 19.24966 | 34790 ft | 419 kts | 168° |
| 2026-05-06 19:26 | 52.55868 | 19.27961 | 34796 ft | 419 kts | 168° |
| 2026-05-06 19:26 | 52.50277 | 19.30855 | 34770 ft | 418 kts | 169° |
| 2026-05-06 19:27 | 52.44737 | 19.33595 | 34777 ft | 419 kts | 169° |
| 2026-05-06 19:27 | 52.39147 | 19.36354 | 34763 ft | 420 kts | 169° |
| 2026-05-06 19:28 | 52.33556 | 19.39150 | 34773 ft | 420 kts | 169° |
| 2026-05-06 19:28 | 52.27961 | 19.41950 | 34779 ft | 421 kts | 169° |
| 2026-05-06 19:29 | 52.22358 | 19.44751 | 34787 ft | 421 kts | 169° |
| 2026-05-06 19:29 | 52.16749 | 19.47540 | 34795 ft | 421 kts | 169° |
| 2026-05-06 19:30 | 52.11139 | 19.50307 | 34797 ft | 421 kts | 169° |
| 2026-05-06 19:30 | 52.05531 | 19.53074 | 34799 ft | 421 kts | 169° |
| 2026-05-06 19:31 | 51.99925 | 19.55833 | 34804 ft | 421 kts | 169° |
| 2026-05-06 19:31 | 51.91527 | 19.59960 | 34578 ft | 418 kts | 169° |
| 2026-05-06 19:32 | 51.88753 | 19.61328 | 34130 ft | 415 kts | 169° |
| 2026-05-06 19:32 | 51.86001 | 19.62684 | 33629 ft | 413 kts | 169° |
| 2026-05-06 19:32 | 51.83258 | 19.64029 | 33110 ft | 410 kts | 169° |
| 2026-05-06 19:32 | 51.80540 | 19.65356 | 32654 ft | 406 kts | 169° |
| 2026-05-06 19:33 | 51.77846 | 19.66620 | 32183 ft | 401 kts | 171° |
| 2026-05-06 19:33 | 51.75165 | 19.67768 | 31714 ft | 396 kts | 172° |
| 2026-05-06 19:33 | 51.72505 | 19.68841 | 31270 ft | 392 kts | 172° |
| 2026-05-06 19:33 | 51.69868 | 19.69883 | 30815 ft | 389 kts | 172° |
| 2026-05-06 19:34 | 51.67251 | 19.70927 | 30357 ft | 386 kts | 172° |
| 2026-05-06 19:34 | 51.64662 | 19.71975 | 29940 ft | 382 kts | 171° |
| 2026-05-06 19:34 | 51.62096 | 19.73026 | 29472 ft | 378 kts | 171° |
| 2026-05-06 19:34 | 51.59561 | 19.74076 | 29060 ft | 374 kts | 171° |
| 2026-05-06 19:35 | 51.57055 | 19.75117 | 28630 ft | 370 kts | 171° |
| 2026-05-06 19:35 | 51.55412 | 19.75797 | 28391 ft | 367 kts | 171° |
| 2026-05-06 19:35 | 51.52949 | 19.76810 | 28013 ft | 364 kts | 171° |
| 2026-05-06 19:35 | 51.50503 | 19.77814 | 27614 ft | 362 kts | 171° |
| 2026-05-06 19:36 | 51.47257 | 19.79146 | 27103 ft | 359 kts | 171° |
| 2026-05-06 19:36 | 51.44846 | 19.80137 | 26720 ft | 356 kts | 171° |
| 2026-05-06 19:36 | 51.42450 | 19.81119 | 26331 ft | 354 kts | 171° |
| 2026-05-06 19:36 | 51.40067 | 19.82087 | 25953 ft | 352 kts | 171° |
| 2026-05-06 19:37 | 51.37700 | 19.83048 | 25572 ft | 350 kts | 171° |
| 2026-05-06 19:37 | 51.36139 | 19.83683 | 25307 ft | 349 kts | 171° |
| 2026-05-06 19:37 | 51.33791 | 19.84642 | 24911 ft | 347 kts | 171° |
| 2026-05-06 19:37 | 51.31457 | 19.85593 | 24510 ft | 346 kts | 171° |
| 2026-05-06 19:38 | 51.29128 | 19.86539 | 24103 ft | 344 kts | 171° |
| 2026-05-06 19:38 | 51.26814 | 19.87479 | 23701 ft | 343 kts | 171° |
| 2026-05-06 19:38 | 51.24509 | 19.88418 | 23268 ft | 342 kts | 171° |
| 2026-05-06 19:38 | 51.22210 | 19.89353 | 22809 ft | 339 kts | 170° |
| 2026-05-06 19:39 | 51.19933 | 19.90278 | 22419 ft | 336 kts | 171° |
| 2026-05-06 19:39 | 51.17679 | 19.91191 | 22005 ft | 333 kts | 171° |
| 2026-05-06 19:39 | 51.15440 | 19.92095 | 21605 ft | 331 kts | 171° |
| 2026-05-06 19:39 | 51.13217 | 19.92990 | 21193 ft | 329 kts | 171° |
| 2026-05-06 19:40 | 51.11005 | 19.93877 | 20788 ft | 327 kts | 171° |
| 2026-05-06 19:40 | 51.08808 | 19.94756 | 20383 ft | 325 kts | 171° |
| 2026-05-06 19:40 | 51.06622 | 19.95634 | 19989 ft | 323 kts | 171° |
| 2026-05-06 19:40 | 51.04444 | 19.96511 | 19587 ft | 322 kts | 171° |
| 2026-05-06 19:41 | 51.02279 | 19.97384 | 19178 ft | 321 kts | 171° |
| 2026-05-06 19:41 | 51.00116 | 19.98256 | 18782 ft | 320 kts | 171° |
| 2026-05-06 19:41 | 50.97961 | 19.99122 | 18384 ft | 320 kts | 171° |
| 2026-05-06 19:41 | 50.95802 | 19.99987 | 17977 ft | 319 kts | 171° |
| 2026-05-06 19:42 | 50.93654 | 20.00849 | 17545 ft | 318 kts | 171° |
| 2026-05-06 19:42 | 50.91521 | 20.01701 | 17153 ft | 315 kts | 171° |
| 2026-05-06 19:42 | 50.89401 | 20.02547 | 16764 ft | 313 kts | 171° |
| 2026-05-06 19:42 | 50.87296 | 20.03385 | 16371 ft | 311 kts | 170° |
| 2026-05-06 19:43 | 50.85206 | 20.04221 | 15994 ft | 309 kts | 170° |
| 2026-05-06 19:43 | 50.83127 | 20.05054 | 15602 ft | 307 kts | 170° |
| 2026-05-06 19:43 | 50.81056 | 20.05822 | 15222 ft | 304 kts | 175° |
| 2026-05-06 19:43 | 50.78974 | 20.05990 | 14850 ft | 298 kts | 185° |
| 2026-05-06 19:44 | 50.76906 | 20.05876 | 14458 ft | 296 kts | 185° |
| 2026-05-06 19:44 | 50.74854 | 20.05772 | 14112 ft | 294 kts | 184° |
| 2026-05-06 19:44 | 50.72813 | 20.05674 | 13749 ft | 293 kts | 184° |
| 2026-05-06 19:44 | 50.70778 | 20.05577 | 13361 ft | 292 kts | 184° |
| 2026-05-06 19:45 | 50.68751 | 20.05481 | 12975 ft | 290 kts | 184° |
| 2026-05-06 19:45 | 50.66741 | 20.05387 | 12628 ft | 288 kts | 184° |
| 2026-05-06 19:45 | 50.64751 | 20.05295 | 12270 ft | 286 kts | 184° |
| 2026-05-06 19:45 | 50.62771 | 20.05205 | 11909 ft | 284 kts | 184° |
| 2026-05-06 19:46 | 50.60803 | 20.05115 | 11560 ft | 282 kts | 184° |
| 2026-05-06 19:46 | 50.58849 | 20.05023 | 11208 ft | 281 kts | 184° |
| 2026-05-06 19:46 | 50.56903 | 20.04929 | 10855 ft | 279 kts | 184° |
| 2026-05-06 19:46 | 50.54965 | 20.04837 | 10502 ft | 278 kts | 184° |
| 2026-05-06 19:47 | 50.53040 | 20.04746 | 10191 ft | 276 kts | 184° |
| 2026-05-06 19:47 | 50.51130 | 20.04655 | 9871 ft | 274 kts | 184° |
| 2026-05-06 19:47 | 50.49106 | 20.04559 | 9808 ft | 268 kts | 184° |
| 2026-05-06 19:47 | 50.47383 | 20.04480 | 9812 ft | 269 kts | 184° |
| 2026-05-06 19:48 | 50.45510 | 20.04392 | 9806 ft | 269 kts | 184° |
| 2026-05-06 19:48 | 50.43639 | 20.04294 | 9812 ft | 269 kts | 184° |
| 2026-05-06 19:48 | 50.41768 | 20.04184 | 9810 ft | 269 kts | 184° |
| 2026-05-06 19:48 | 50.39898 | 20.04070 | 9809 ft | 269 kts | 184° |
| 2026-05-06 19:49 | 50.38056 | 20.03959 | 9811 ft | 269 kts | 184° |
| 2026-05-06 19:49 | 50.36184 | 20.03847 | 9813 ft | 269 kts | 184° |
| 2026-05-06 19:49 | 50.34318 | 20.03735 | 9683 ft | 267 kts | 184° |
| 2026-05-06 19:49 | 50.32465 | 20.03626 | 9320 ft | 266 kts | 184° |
| 2026-05-06 19:50 | 50.30618 | 20.03518 | 8978 ft | 265 kts | 184° |
| 2026-05-06 19:50 | 50.28781 | 20.03611 | 8657 ft | 265 kts | 174° |
| 2026-05-06 19:50 | 50.27565 | 20.03998 | 8439 ft | 264 kts | 171° |
| 2026-05-06 19:50 | 50.25201 | 20.04780 | 8110 ft | 257 kts | 171° |
| 2026-05-06 19:51 | 50.23478 | 20.05350 | 7987 ft | 249 kts | 170° |
| 2026-05-06 19:51 | 50.21952 | 20.06538 | 7855 ft | 250 kts | 140° |
| 2026-05-06 19:51 | 50.21157 | 20.08928 | 7687 ft | 256 kts | 103° |
| 2026-05-06 19:51 | 50.21261 | 20.11730 | 7392 ft | 262 kts | 85° |
| 2026-05-06 19:52 | 50.21609 | 20.14538 | 7042 ft | 264 kts | 82° |
| 2026-05-06 19:52 | 50.22016 | 20.17336 | 6722 ft | 264 kts | 81° |
| 2026-05-06 19:52 | 50.22432 | 20.20124 | 6439 ft | 263 kts | 81° |
| 2026-05-06 19:52 | 50.22841 | 20.22907 | 6156 ft | 262 kts | 82° |
| 2026-05-06 19:53 | 50.23238 | 20.25687 | 5847 ft | 262 kts | 82° |
| 2026-05-06 19:53 | 50.23370 | 20.28452 | 5676 ft | 251 kts | 107° |
| 2026-05-06 19:53 | 50.22696 | 20.30856 | 5553 ft | 237 kts | 136° |
| 2026-05-06 19:53 | 50.21451 | 20.32385 | 5432 ft | 225 kts | 162° |
| 2026-05-06 19:54 | 50.19963 | 20.33005 | 5312 ft | 221 kts | 173° |
| 2026-05-06 19:54 | 50.18480 | 20.33480 | 5189 ft | 221 kts | 173° |
| 2026-05-06 19:54 | 50.16975 | 20.33717 | 5055 ft | 215 kts | 192° |
| 2026-05-06 19:54 | 50.15657 | 20.32757 | 4933 ft | 212 kts | 223° |
| 2026-05-06 19:55 | 50.14920 | 20.30780 | 4810 ft | 218 kts | 253° |
| 2026-05-06 19:55 | 50.14653 | 20.28443 | 4696 ft | 218 kts | 255° |
| 2026-05-06 19:55 | 50.14349 | 20.26132 | 4570 ft | 218 kts | 253° |
| 2026-05-06 19:55 | 50.14026 | 20.23828 | 4447 ft | 218 kts | 253° |
| 2026-05-06 19:56 | 50.13701 | 20.21515 | 4319 ft | 218 kts | 253° |
| 2026-05-06 19:56 | 50.13377 | 20.19202 | 4193 ft | 218 kts | 253° |
| 2026-05-06 19:56 | 50.13056 | 20.16889 | 4089 ft | 219 kts | 254° |
| 2026-05-06 19:56 | 50.12736 | 20.14569 | 4002 ft | 219 kts | 253° |
| 2026-05-06 19:57 | 50.12433 | 20.12378 | 3998 ft | 195 kts | 253° |
| 2026-05-06 19:57 | 50.12156 | 20.10361 | 4003 ft | 188 kts | 253° |
| 2026-05-06 19:57 | 50.11884 | 20.08377 | 4008 ft | 187 kts | 253° |
| 2026-05-06 19:57 | 50.11613 | 20.06398 | 3990 ft | 187 kts | 253° |
| 2026-05-06 19:58 | 50.11342 | 20.04411 | 3836 ft | 186 kts | 253° |
| 2026-05-06 19:58 | 50.11089 | 20.02543 | 3692 ft | 170 kts | 253° |
| 2026-05-06 19:58 | 50.10848 | 20.00780 | 3425 ft | 163 kts | 252° |
| 2026-05-06 19:58 | 50.10617 | 19.99096 | 3188 ft | 154 kts | 252° |
| 2026-05-06 19:59 | 50.10400 | 19.97510 | 2998 ft | 146 kts | 251° |
| 2026-05-06 19:59 | 50.10192 | 19.95997 | 2809 ft | 141 kts | 251° |
| 2026-05-06 19:59 | 50.09986 | 19.94507 | 2626 ft | 141 kts | 251° |
| 2026-05-06 19:59 | 50.09782 | 19.93023 | 2456 ft | 141 kts | 251° |
| 2026-05-06 20:00 | 50.09574 | 19.91516 | 2260 ft | 142 kts | 251° |
| 2026-05-06 20:00 | 50.09364 | 19.90001 | 2093 ft | 144 kts | 251° |
| 2026-05-06 20:00 | 50.09204 | 19.88460 | 1884 ft | 144 kts | 259° |
| 2026-05-06 20:00 | 50.08967 | 19.86931 | 1688 ft | 148 kts | 255° |
| 2026-05-06 20:01 | 50.08690 | 19.85372 | 1601 ft | 151 kts | 257° |
| 2026-05-06 20:01 | 50.08522 | 19.83762 | 1382 ft | 149 kts | 256° |
| 2026-05-06 20:01 | 50.08265 | 19.82200 | 1112 ft | 148 kts | 260° |
| 2026-05-06 20:01 | 50.08062 | 19.80621 | 898 ft | 149 kts | 259° |
| 2026-05-06 20:02 | 50.07858 | 19.79113 | 793 ft | 132 kts | 257° |
| 2026-05-06 20:02 | 50.07770 | 19.78482 | 795 ft | 3 kts | 258° |
| 2026-05-06 20:02 | 50.07765 | 19.78447 | 796 ft | 4 kts | 258° |
| 2026-05-06 20:02 | 50.07757 | 19.78386 | 796 ft | 8 kts | 258° |
| 2026-05-06 20:03 | 50.07742 | 19.78281 | 795 ft | 12 kts | 257° |
| 2026-05-06 20:03 | 50.07713 | 19.78130 | 794 ft | 16 kts | 238° |
| 2026-05-06 20:03 | 50.07647 | 19.78093 | 795 ft | 0 kts | 184° |
| 2026-05-06 20:04 | 50.07643 | 19.78092 | 795 ft | 3 kts | 184° |
| 2026-05-06 20:04 | 50.07617 | 19.78090 | 795 ft | 0 kts | 184° |
| 2026-05-06 20:05 | 50.07593 | 19.78087 | 795 ft | 8 kts | 183° |
| 2026-05-06 20:05 | 50.07515 | 19.78082 | 795 ft | 13 kts | 179° |
| 2026-05-06 20:05 | 50.07478 | 19.78206 | 795 ft | 19 kts | 77° |
| 2026-05-06 20:05 | 50.07505 | 19.78401 | 794 ft | 18 kts | 77° |
| 2026-05-06 20:06 | 50.07535 | 19.78610 | 794 ft | 21 kts | 77° |
| 2026-05-06 20:06 | 50.07569 | 19.78839 | 793 ft | 19 kts | 78° |
| 2026-05-06 20:06 | 50.07595 | 19.79038 | 793 ft | 18 kts | 78° |
| 2026-05-06 20:06 | 50.07622 | 19.79244 | 792 ft | 21 kts | 77° |
| 2026-05-06 20:07 | 50.07654 | 19.79474 | 791 ft | 21 kts | 78° |
| 2026-05-06 20:07 | 50.07686 | 19.79699 | 791 ft | 23 kts | 77° |
| 2026-05-06 20:07 | 50.07713 | 19.79906 | 790 ft | 17 kts | 84° |
| 2026-05-06 20:07 | 50.07637 | 19.79957 | 790 ft | 12 kts | 207° |
| 2026-05-06 20:08 | 50.07610 | 19.79994 | 790 ft | 5 kts | 82° |
| 2026-05-06 20:08 | 50.07618 | 19.80065 | 790 ft | 8 kts | 78° |
| 2026-05-06 20:08 | 50.07634 | 19.80166 | 789 ft | 11 kts | 76° |
| 2026-05-06 20:08 | 50.07655 | 19.80299 | 789 ft | 14 kts | 77° |
| 2026-05-06 20:09 | 50.07624 | 19.80407 | 789 ft | 13 kts | 168° |
| 2026-05-06 20:09 | 50.07552 | 19.80335 | 789 ft | 14 kts | 236° |
| 2026-05-06 20:09 | 50.07505 | 19.80233 | 789 ft | 6 kts | 231° |
| 2026-05-06 20:09 | 50.07489 | 19.80221 | 789 ft | 0 kts | 191° |
| 2026-05-06 20:10 | 50.07484 | 19.80217 | 789 ft | 2 kts | 199° |
| 2026-05-06 20:10 | 50.07476 | 19.80218 | 789 ft | 0 kts | 169° |